createdAt,value
2016-12-17T00:00:14.285Z,60.07
2016-12-17T00:01:13.929Z,60.08
2016-12-17T00:02:16.192Z,60.06
2016-12-17T00:03:11.127Z,60.07
2016-12-17T00:04:13.183Z,60.06
2016-12-17T00:05:13.393Z,60.05
2016-12-17T00:06:14.320Z,60.05
2016-12-17T00:07:13.252Z,60.04
2016-12-17T00:08:13.273Z,60.02
2016-12-17T00:09:14.080Z,60.02
2016-12-17T00:10:12.729Z,60.00
2016-12-17T00:11:13.398Z,59.98
2016-12-17T00:12:13.132Z,59.96
2016-12-17T00:13:14.121Z,59.96
2016-12-17T00:14:13.514Z,59.94
2016-12-17T00:15:13.067Z,59.94
2016-12-17T00:16:13.466Z,59.95
2016-12-17T00:17:13.076Z,59.95
2016-12-17T00:18:15.966Z,59.94
2016-12-17T00:19:13.347Z,59.92
2016-12-17T00:20:13.085Z,59.70
2016-12-17T00:21:13.791Z,59.90
2016-12-17T00:22:12.800Z,59.90
2016-12-17T00:23:13.639Z,59.30
2016-12-17T00:24:13.586Z,59.72
2016-12-17T00:25:13.603Z,59.68
2016-12-17T00:26:13.123Z,58.89
2016-12-17T00:27:13.226Z,58.93
2016-12-17T00:28:13.897Z,59.53
2016-12-17T00:29:15.481Z,58.76
2016-12-17T00:30:13.496Z,58.61
2016-12-17T00:31:13.442Z,58.57
2016-12-17T00:32:13.254Z,58.52
2016-12-17T00:33:13.995Z,58.87
2016-12-17T00:34:13.216Z,59.44
2016-12-17T00:35:12.332Z,59.66
2016-12-17T00:36:12.918Z,59.71
2016-12-17T00:37:15.294Z,59.75
2016-12-17T00:38:13.054Z,59.80
2016-12-17T00:39:14.219Z,59.81
2016-12-17T00:40:13.945Z,59.82
2016-12-17T00:41:14.607Z,59.82
2016-12-17T00:42:13.995Z,59.84
2016-12-17T00:43:11.388Z,59.87
2016-12-17T00:44:13.258Z,59.86
2016-12-17T00:45:13.645Z,59.87
2016-12-17T00:46:14.469Z,59.88
2016-12-17T00:47:12.336Z,59.83
2016-12-17T00:48:13.400Z,59.87
2016-12-17T00:49:13.314Z,59.88
2016-12-17T00:50:13.308Z,59.86
2016-12-17T00:51:20.759Z,59.86
2016-12-17T00:52:14.034Z,59.86
2016-12-17T00:53:12.702Z,60.04
2016-12-17T00:54:16.504Z,59.28
2016-12-17T00:55:14.258Z,59.66
2016-12-17T00:56:13.073Z,59.79
2016-12-17T00:57:13.211Z,59.84
2016-12-17T00:58:13.175Z,59.85
2016-12-17T00:59:10.864Z,59.85
2016-12-17T01:00:13.862Z,59.83
2016-12-17T01:01:13.286Z,58.90
2016-12-17T01:02:11.488Z,58.78
2016-12-17T01:03:14.420Z,59.58
2016-12-17T01:04:13.357Z,59.70
2016-12-17T01:05:14.610Z,59.78
2016-12-17T01:06:14.288Z,59.80
2016-12-17T01:07:14.428Z,59.80
2016-12-17T01:08:14.381Z,59.85
2016-12-17T01:09:15.091Z,59.84
2016-12-17T01:10:12.191Z,59.85
2016-12-17T01:11:12.847Z,59.86
2016-12-17T01:12:19.669Z,59.86
2016-12-17T01:13:13.791Z,59.83
2016-12-17T01:14:13.673Z,59.84
2016-12-17T01:15:13.021Z,59.83
2016-12-17T01:16:13.989Z,59.87
2016-12-17T01:17:14.483Z,59.85
2016-12-17T01:18:15.184Z,59.86
2016-12-17T01:19:13.575Z,59.85
2016-12-17T01:20:14.820Z,59.85
2016-12-17T01:21:13.024Z,59.85
2016-12-17T01:22:14.186Z,59.86
2016-12-17T01:23:13.553Z,59.87
2016-12-17T01:24:15.442Z,59.87
2016-12-17T01:25:13.208Z,59.86
2016-12-17T01:26:12.665Z,59.87
2016-12-17T01:27:13.876Z,59.74
2016-12-17T01:28:15.864Z,58.93
2016-12-17T01:29:13.976Z,58.76
2016-12-17T01:30:13.550Z,58.66
2016-12-17T01:31:13.939Z,58.64
2016-12-17T01:32:13.654Z,58.59
2016-12-17T01:33:14.648Z,59.50
2016-12-17T01:34:14.416Z,59.67
2016-12-17T01:35:14.331Z,59.78
2016-12-17T01:36:14.910Z,59.82
2016-12-17T01:37:13.115Z,59.87
2016-12-17T01:38:13.413Z,59.87
2016-12-17T01:39:14.120Z,59.89
2016-12-17T01:40:13.588Z,59.93
2016-12-17T01:41:15.755Z,59.95
2016-12-17T01:42:14.200Z,59.75
2016-12-17T01:43:13.186Z,58.97
2016-12-17T01:44:11.272Z,58.78
2016-12-17T01:45:18.835Z,58.69
2016-12-17T01:46:14.203Z,58.61
2016-12-17T01:47:13.176Z,58.59
2016-12-17T01:48:11.175Z,58.57
2016-12-17T01:49:13.250Z,58.57
2016-12-17T01:50:14.197Z,59.50
2016-12-17T01:51:13.739Z,59.70
2016-12-17T01:52:13.736Z,59.80
2016-12-17T01:53:12.677Z,59.89
2016-12-17T01:54:13.531Z,58.94
2016-12-17T01:55:15.634Z,58.76
2016-12-17T01:56:12.710Z,58.58
2016-12-17T01:57:13.844Z,58.63
2016-12-17T01:58:13.898Z,58.66
2016-12-17T01:59:13.698Z,59.56
2016-12-17T02:00:14.033Z,58.74
2016-12-17T02:01:15.548Z,58.70
2016-12-17T02:02:14.232Z,58.66
2016-12-17T02:03:15.525Z,58.63
2016-12-17T02:04:15.296Z,58.65
2016-12-17T02:05:13.186Z,58.96
2016-12-17T02:06:14.114Z,59.57
2016-12-17T02:07:11.577Z,59.78
2016-12-17T02:08:13.392Z,59.85
2016-12-17T02:09:13.868Z,59.93
2016-12-17T02:10:15.222Z,59.98
2016-12-17T02:11:13.891Z,59.98
2016-12-17T02:12:14.302Z,60.00
2016-12-17T02:13:14.023Z,60.02
2016-12-17T02:14:14.721Z,60.04
2016-12-17T02:15:13.792Z,60.03
2016-12-17T02:16:16.272Z,60.03
2016-12-17T02:17:11.172Z,60.06
2016-12-17T02:18:13.444Z,60.04
2016-12-17T02:19:13.982Z,60.03
2016-12-17T02:20:13.449Z,60.03
2016-12-17T02:21:14.364Z,60.02
2016-12-17T02:22:13.747Z,60.02
2016-12-17T02:23:12.207Z,60.01
2016-12-17T02:24:13.851Z,59.91
2016-12-17T02:25:13.377Z,59.09
2016-12-17T02:26:13.692Z,59.84
2016-12-17T02:27:13.145Z,59.95
2016-12-17T02:28:13.228Z,60.01
2016-12-17T02:29:12.045Z,59.89
2016-12-17T02:30:13.487Z,59.05
2016-12-17T02:31:16.141Z,58.90
2016-12-17T02:32:13.792Z,58.88
2016-12-17T02:33:13.758Z,59.72
2016-12-17T02:34:14.451Z,59.90
2016-12-17T02:35:10.949Z,60.01
2016-12-17T02:36:12.880Z,60.10
2016-12-17T02:37:13.331Z,59.12
2016-12-17T02:38:14.707Z,58.94
2016-12-17T02:39:13.428Z,58.84
2016-12-17T02:40:14.139Z,58.79
2016-12-17T02:41:12.924Z,58.74
2016-12-17T02:42:11.978Z,58.72
2016-12-17T02:43:14.418Z,58.71
2016-12-17T02:44:13.381Z,58.71
2016-12-17T02:45:13.351Z,58.66
2016-12-17T02:46:10.828Z,58.70
2016-12-17T02:47:13.188Z,59.62
2016-12-17T02:48:14.041Z,59.81
2016-12-17T02:49:12.798Z,59.93
2016-12-17T02:50:14.149Z,60.00
2016-12-17T02:51:16.115Z,60.03
2016-12-17T02:52:14.171Z,60.06
2016-12-17T02:53:13.609Z,60.08
2016-12-17T02:54:14.068Z,60.10
2016-12-17T02:55:13.321Z,60.11
2016-12-17T02:56:13.047Z,60.09
2016-12-17T02:57:12.809Z,60.10
2016-12-17T02:58:14.980Z,60.11
2016-12-17T02:59:13.043Z,60.11
2016-12-17T03:00:13.533Z,60.11
2016-12-17T03:01:13.367Z,60.12
2016-12-17T03:02:13.899Z,60.13
2016-12-17T03:03:13.946Z,60.13
2016-12-17T03:04:11.040Z,60.16
2016-12-17T03:05:13.032Z,60.14
2016-12-17T03:06:14.006Z,60.13
2016-12-17T03:07:10.736Z,60.15
2016-12-17T03:08:14.410Z,60.17
2016-12-17T03:09:13.866Z,60.17
2016-12-17T03:10:14.818Z,60.15
2016-12-17T03:11:14.651Z,60.16
2016-12-17T03:12:12.372Z,60.18
2016-12-17T03:13:13.421Z,60.15
2016-12-17T03:14:13.060Z,60.15
2016-12-17T03:15:13.021Z,60.16
2016-12-17T03:16:12.694Z,60.18
2016-12-17T03:17:14.219Z,60.17
2016-12-17T03:18:13.179Z,60.20
2016-12-17T03:19:13.904Z,60.21
2016-12-17T03:20:14.145Z,60.24
2016-12-17T03:21:12.991Z,60.24
2016-12-17T03:22:14.866Z,60.24
2016-12-17T03:23:12.875Z,60.27
2016-12-17T03:24:13.294Z,60.23
2016-12-17T03:25:12.121Z,60.23
2016-12-17T03:26:13.390Z,60.26
2016-12-17T03:27:13.833Z,60.26
2016-12-17T03:28:13.558Z,60.28
2016-12-17T03:29:13.650Z,60.31
2016-12-17T03:30:14.084Z,60.29
2016-12-17T03:31:13.054Z,60.31
2016-12-17T03:32:14.795Z,60.34
2016-12-17T03:33:13.823Z,60.33
2016-12-17T03:34:13.718Z,60.35
2016-12-17T03:35:13.331Z,60.37
2016-12-17T03:36:13.859Z,60.36
2016-12-17T03:37:16.389Z,60.36
2016-12-17T03:38:14.343Z,60.39
2016-12-17T03:39:15.698Z,60.42
2016-12-17T03:40:13.757Z,60.39
2016-12-17T03:41:11.651Z,60.39
2016-12-17T03:42:13.757Z,60.39
2016-12-17T03:43:13.801Z,60.35
2016-12-17T03:44:13.171Z,60.37
2016-12-17T03:45:13.488Z,60.40
2016-12-17T03:46:14.270Z,60.39
2016-12-17T03:47:13.310Z,60.35
2016-12-17T03:48:13.015Z,60.37
2016-12-17T03:49:11.641Z,60.38
2016-12-17T03:50:14.495Z,60.40
2016-12-17T03:51:13.518Z,60.41
2016-12-17T03:52:14.157Z,60.45
2016-12-17T03:53:13.893Z,60.43
2016-12-17T03:54:13.693Z,60.46
2016-12-17T03:55:14.365Z,60.47
2016-12-17T03:56:15.022Z,60.44
2016-12-17T03:57:13.824Z,60.43
2016-12-17T03:58:16.495Z,60.45
2016-12-17T03:59:13.698Z,60.47
2016-12-17T04:00:16.189Z,60.44
2016-12-17T04:01:13.961Z,60.42
2016-12-17T04:02:13.281Z,60.46
2016-12-17T04:03:14.304Z,60.47
2016-12-17T04:04:13.311Z,60.42
2016-12-17T04:05:13.859Z,60.45
2016-12-17T04:06:13.819Z,60.44
2016-12-17T04:07:14.526Z,60.43
2016-12-17T04:08:13.077Z,60.47
2016-12-17T04:09:14.819Z,60.48
2016-12-17T04:10:14.743Z,60.47
2016-12-17T04:11:14.146Z,60.44
2016-12-17T04:12:12.095Z,60.43
2016-12-17T04:13:13.375Z,60.44
2016-12-17T04:14:15.004Z,60.47
2016-12-17T04:15:14.014Z,60.43
2016-12-17T04:16:14.123Z,60.45
2016-12-17T04:17:14.545Z,60.47
2016-12-17T04:18:13.550Z,60.47
2016-12-17T04:19:13.630Z,60.46
2016-12-17T04:20:13.638Z,60.50
2016-12-17T04:21:13.811Z,60.51
2016-12-17T04:22:13.904Z,60.37
2016-12-17T04:23:13.169Z,59.74
2016-12-17T04:24:13.299Z,60.32
2016-12-17T04:25:13.508Z,60.45
2016-12-17T04:26:13.493Z,60.51
2016-12-17T04:27:14.660Z,60.55
2016-12-17T04:28:17.446Z,60.55
2016-12-17T04:29:14.161Z,60.59
2016-12-17T04:30:13.414Z,60.62
2016-12-17T04:31:14.200Z,60.61
2016-12-17T04:32:13.721Z,60.59
2016-12-17T04:33:13.905Z,60.58
2016-12-17T04:34:14.546Z,60.61
2016-12-17T04:35:13.615Z,60.61
2016-12-17T04:36:13.573Z,60.62
2016-12-17T04:37:12.994Z,60.64
2016-12-17T04:38:20.428Z,59.68
2016-12-17T04:39:12.569Z,59.51
2016-12-17T04:40:13.685Z,59.39
2016-12-17T04:41:15.508Z,59.36
2016-12-17T04:42:14.256Z,59.34
2016-12-17T04:43:12.848Z,59.28
2016-12-17T04:44:15.257Z,59.26
2016-12-17T04:45:12.736Z,59.24
2016-12-17T04:46:13.798Z,59.27
2016-12-17T04:47:13.845Z,59.54
2016-12-17T04:48:13.596Z,60.21
2016-12-17T04:49:13.019Z,60.41
2016-12-17T04:50:12.966Z,60.57
2016-12-17T04:51:11.883Z,60.58
2016-12-17T04:52:13.508Z,60.60
2016-12-17T04:53:14.200Z,60.62
2016-12-17T04:54:13.273Z,60.66
2016-12-17T04:55:13.357Z,60.67
2016-12-17T04:56:14.456Z,60.68
2016-12-17T04:57:13.547Z,60.68
2016-12-17T04:58:14.233Z,60.69
2016-12-17T04:59:14.415Z,60.71
2016-12-17T05:00:13.246Z,60.67
2016-12-17T05:01:12.879Z,60.68
2016-12-17T05:02:14.563Z,60.71
2016-12-17T05:03:13.702Z,60.70
2016-12-17T05:04:13.131Z,60.72
2016-12-17T05:05:15.167Z,59.73
2016-12-17T05:06:18.532Z,59.67
2016-12-17T05:07:14.432Z,60.45
2016-12-17T05:08:13.874Z,60.57
2016-12-17T05:09:14.447Z,60.66
2016-12-17T05:10:13.404Z,60.70
2016-12-17T05:11:13.955Z,60.71
2016-12-17T05:12:14.348Z,60.71
2016-12-17T05:13:13.301Z,60.71
2016-12-17T05:14:13.217Z,60.72
2016-12-17T05:15:12.817Z,60.73
2016-12-17T05:16:14.414Z,60.73
2016-12-17T05:17:14.214Z,60.72
2016-12-17T05:18:14.441Z,60.59
2016-12-17T05:19:13.877Z,59.78
2016-12-17T05:20:16.377Z,59.61
2016-12-17T05:21:14.193Z,59.46
2016-12-17T05:22:14.305Z,59.43
2016-12-17T05:23:13.834Z,59.35
2016-12-17T05:24:16.925Z,59.33
2016-12-17T05:25:19.650Z,59.38
2016-12-17T05:26:15.132Z,59.35
2016-12-17T05:27:13.650Z,59.37
2016-12-17T05:28:13.608Z,59.34
2016-12-17T05:29:14.624Z,59.33
2016-12-17T05:30:13.839Z,59.38
2016-12-17T05:31:15.756Z,59.47
2016-12-17T05:32:24.033Z,59.33
2016-12-17T05:33:13.446Z,59.40
2016-12-17T05:34:13.374Z,60.30
2016-12-17T05:35:13.175Z,60.48
2016-12-17T05:36:12.872Z,60.61
2016-12-17T05:37:13.377Z,60.64
2016-12-17T05:38:13.543Z,60.70
2016-12-17T05:39:13.986Z,60.73
2016-12-17T05:40:12.048Z,60.76
2016-12-17T05:41:13.406Z,60.76
2016-12-17T05:42:13.609Z,60.77
2016-12-17T05:43:13.187Z,60.80
2016-12-17T05:44:13.480Z,60.80
2016-12-17T05:45:10.773Z,60.81
2016-12-17T05:46:13.454Z,60.78
2016-12-17T05:47:11.911Z,60.77
2016-12-17T05:48:13.470Z,60.79
2016-12-17T05:49:13.978Z,60.62
2016-12-17T05:50:13.759Z,59.82
2016-12-17T05:51:14.687Z,59.56
2016-12-17T05:52:13.576Z,59.81
2016-12-17T05:53:13.907Z,60.42
2016-12-17T05:54:13.534Z,60.58
2016-12-17T05:55:14.036Z,60.67
2016-12-17T05:56:12.590Z,60.70
2016-12-17T05:57:13.659Z,60.77
2016-12-17T05:58:13.414Z,60.76
2016-12-17T05:59:13.616Z,60.74
2016-12-17T06:00:11.507Z,60.77
2016-12-17T06:01:14.541Z,60.76
2016-12-17T06:02:13.664Z,60.77
2016-12-17T06:03:13.702Z,60.74
2016-12-17T06:04:13.820Z,60.77
2016-12-17T06:05:13.529Z,60.78
2016-12-17T06:06:11.990Z,60.79
2016-12-17T06:07:13.170Z,60.75
2016-12-17T06:08:13.140Z,60.76
2016-12-17T06:09:13.403Z,60.78
2016-12-17T06:10:13.358Z,60.78
2016-12-17T06:11:14.209Z,60.80
2016-12-17T06:12:13.619Z,60.60
2016-12-17T06:13:13.863Z,59.83
2016-12-17T06:14:13.707Z,59.64
2016-12-17T06:15:12.696Z,59.56
2016-12-17T06:16:14.982Z,59.46
2016-12-17T06:17:13.693Z,59.50
2016-12-17T06:18:13.737Z,59.71
2016-12-17T06:19:12.257Z,60.45
2016-12-17T06:20:14.347Z,60.69
2016-12-17T06:21:13.619Z,60.77
2016-12-17T06:22:14.057Z,60.67
2016-12-17T06:23:13.632Z,59.96
2016-12-17T06:24:14.111Z,60.48
2016-12-17T06:25:13.563Z,60.14
2016-12-17T06:26:11.111Z,60.67
2016-12-17T06:27:13.997Z,60.76
2016-12-17T06:28:13.536Z,60.86
2016-12-17T06:29:13.367Z,60.87
2016-12-17T06:30:12.345Z,60.88
2016-12-17T06:31:14.105Z,59.91
2016-12-17T06:32:13.628Z,60.61
2016-12-17T06:33:13.632Z,59.79
2016-12-17T06:34:13.407Z,59.62
2016-12-17T06:35:14.278Z,59.54
2016-12-17T06:36:12.981Z,59.52
2016-12-17T06:37:13.364Z,59.63
2016-12-17T06:38:13.847Z,60.45
2016-12-17T06:39:11.312Z,60.65
2016-12-17T06:40:12.665Z,60.76
2016-12-17T06:41:13.989Z,60.80
2016-12-17T06:42:13.152Z,60.83
2016-12-17T06:43:13.342Z,60.85
2016-12-17T06:44:13.679Z,60.89
2016-12-17T06:45:12.562Z,60.90
2016-12-17T06:46:14.470Z,60.89
2016-12-17T06:47:13.061Z,60.91
2016-12-17T06:48:11.883Z,60.03
2016-12-17T06:49:13.848Z,59.81
2016-12-17T06:50:14.754Z,59.68
2016-12-17T06:51:13.739Z,59.66
2016-12-17T06:52:11.758Z,60.54
2016-12-17T06:53:13.179Z,60.76
2016-12-17T06:54:14.175Z,60.86
2016-12-17T06:55:13.520Z,60.87
2016-12-17T06:56:12.748Z,60.96
2016-12-17T06:57:14.431Z,60.00
2016-12-17T06:58:13.305Z,59.61
2016-12-17T06:59:13.815Z,59.70
2016-12-17T07:00:14.514Z,59.91
2016-12-17T07:01:13.341Z,60.58
2016-12-17T07:02:12.459Z,60.77
2016-12-17T07:03:13.520Z,59.91
2016-12-17T07:04:13.710Z,59.77
2016-12-17T07:05:12.708Z,59.73
2016-12-17T07:06:12.965Z,59.71
2016-12-17T07:07:13.770Z,60.56
2016-12-17T07:08:14.196Z,60.76
2016-12-17T07:09:12.865Z,60.87
2016-12-17T07:10:13.896Z,60.88
2016-12-17T07:11:14.145Z,60.89
2016-12-17T07:12:13.275Z,60.90
2016-12-17T07:13:13.282Z,60.92
2016-12-17T07:14:13.396Z,60.94
2016-12-17T07:15:13.744Z,60.96
2016-12-17T07:16:14.201Z,60.96
2016-12-17T07:17:13.166Z,60.93
2016-12-17T07:18:13.987Z,60.97
2016-12-17T07:19:11.593Z,61.02
2016-12-17T07:20:13.471Z,60.92
2016-12-17T07:21:13.123Z,60.93
2016-12-17T07:22:13.435Z,60.94
2016-12-17T07:23:13.126Z,60.96
2016-12-17T07:24:13.114Z,60.96
2016-12-17T07:25:13.789Z,60.97
2016-12-17T07:26:13.467Z,60.94
2016-12-17T07:27:14.736Z,60.91
2016-12-17T07:28:14.516Z,60.93
2016-12-17T07:29:13.076Z,60.81
2016-12-17T07:30:10.759Z,60.00
2016-12-17T07:31:14.636Z,60.73
2016-12-17T07:32:13.815Z,60.79
2016-12-17T07:33:13.934Z,60.86
2016-12-17T07:34:13.666Z,60.87
2016-12-17T07:35:13.186Z,60.89
2016-12-17T07:36:13.767Z,60.92
2016-12-17T07:37:13.671Z,60.91
2016-12-17T07:38:13.692Z,60.91
2016-12-17T07:39:14.521Z,60.88
2016-12-17T07:40:13.968Z,60.93
2016-12-17T07:41:13.806Z,60.93
2016-12-17T07:42:11.872Z,60.94
2016-12-17T07:43:13.818Z,60.77
2016-12-17T07:44:15.719Z,59.96
2016-12-17T07:45:14.442Z,59.73
2016-12-17T07:46:13.952Z,59.67
2016-12-17T07:47:13.418Z,59.96
2016-12-17T07:48:13.743Z,60.55
2016-12-17T07:49:13.212Z,60.79
2016-12-17T07:50:13.337Z,59.87
2016-12-17T07:51:13.873Z,59.75
2016-12-17T07:52:13.887Z,59.67
2016-12-17T07:53:13.453Z,60.01
2016-12-17T07:54:13.777Z,60.69
2016-12-17T07:55:14.604Z,60.90
2016-12-17T07:56:14.600Z,60.94
2016-12-17T07:57:20.965Z,61.06
2016-12-17T07:58:13.338Z,61.12
2016-12-17T07:59:13.656Z,61.08
2016-12-17T08:00:13.417Z,61.11
2016-12-17T08:01:14.240Z,61.13
2016-12-17T08:02:13.739Z,61.15
2016-12-17T08:03:14.780Z,61.15
2016-12-17T08:04:13.573Z,61.11
2016-12-17T08:05:13.501Z,61.14
2016-12-17T08:06:13.645Z,61.10
2016-12-17T08:07:13.593Z,61.16
2016-12-17T08:08:13.570Z,61.15
2016-12-17T08:09:13.580Z,61.10
2016-12-17T08:10:13.096Z,61.10
2016-12-17T08:11:13.496Z,60.88
2016-12-17T08:12:13.082Z,60.13
2016-12-17T08:13:14.038Z,60.25
2016-12-17T08:14:11.843Z,60.82
2016-12-17T08:15:14.035Z,60.95
2016-12-17T08:16:11.839Z,60.87
2016-12-17T08:17:12.940Z,60.10
2016-12-17T08:18:12.164Z,59.94
2016-12-17T08:19:13.989Z,59.82
2016-12-17T08:20:12.602Z,60.66
2016-12-17T08:21:13.468Z,60.86
2016-12-17T08:22:13.261Z,60.96
2016-12-17T08:23:10.339Z,60.99
2016-12-17T08:24:13.614Z,61.03
2016-12-17T08:25:12.790Z,61.03
2016-12-17T08:26:13.068Z,61.04
2016-12-17T08:27:10.407Z,61.09
2016-12-17T08:28:13.526Z,61.04
2016-12-17T08:29:12.519Z,61.06
2016-12-17T08:30:12.110Z,60.77
2016-12-17T08:31:13.813Z,60.09
2016-12-17T08:32:14.187Z,59.84
2016-12-17T08:33:14.212Z,59.79
2016-12-17T08:34:15.736Z,59.79
2016-12-17T08:35:14.049Z,59.72
2016-12-17T08:36:12.753Z,59.68
2016-12-17T08:37:15.599Z,59.79
2016-12-17T08:38:14.430Z,60.65
2016-12-17T08:39:14.507Z,60.86
2016-12-17T08:40:15.372Z,60.95
2016-12-17T08:41:13.337Z,60.95
2016-12-17T08:42:12.964Z,60.87
2016-12-17T08:43:13.908Z,60.08
2016-12-17T08:44:14.502Z,59.79
2016-12-17T08:45:13.505Z,59.69
2016-12-17T08:46:13.624Z,59.71
2016-12-17T08:47:13.358Z,59.75
2016-12-17T08:48:15.058Z,59.76
2016-12-17T08:49:13.607Z,59.80
2016-12-17T08:50:14.537Z,60.12
2016-12-17T08:51:13.851Z,60.54
2016-12-17T08:52:13.568Z,59.98
2016-12-17T08:53:14.457Z,59.87
2016-12-17T08:54:13.276Z,60.81
2016-12-17T08:55:14.325Z,61.00
2016-12-17T08:56:13.814Z,61.14
2016-12-17T08:57:14.723Z,61.21
2016-12-17T08:58:10.819Z,61.24
2016-12-17T08:59:13.519Z,61.29
2016-12-17T09:00:13.551Z,61.33
2016-12-17T09:01:11.746Z,61.35
2016-12-17T09:02:15.598Z,61.38
2016-12-17T09:03:13.969Z,61.38
2016-12-17T09:04:13.858Z,61.40
2016-12-17T09:05:14.097Z,61.42
2016-12-17T09:06:13.590Z,61.35
2016-12-17T09:07:14.388Z,61.38
2016-12-17T09:08:15.418Z,61.34
2016-12-17T09:09:13.916Z,61.31
2016-12-17T09:10:16.102Z,61.29
2016-12-17T09:11:13.379Z,61.29
2016-12-17T09:12:11.073Z,61.30
2016-12-17T09:13:14.860Z,61.31
2016-12-17T09:14:14.059Z,61.30
2016-12-17T09:15:13.157Z,61.23
2016-12-17T09:16:13.645Z,61.23
2016-12-17T09:17:16.456Z,43.46
2016-12-17T09:18:13.469Z,43.21
2016-12-17T09:19:14.742Z,43.88
2016-12-17T09:20:13.722Z,44.18
2016-12-17T09:21:12.159Z,45.09
2016-12-17T09:22:13.339Z,45.00
2016-12-17T09:23:14.167Z,45.60
2016-12-17T09:24:09.546Z,47.12
2016-12-17T09:25:12.289Z,47.62
2016-12-17T09:26:13.909Z,46.57
2016-12-17T09:27:10.474Z,47.16
2016-12-17T09:28:13.299Z,48.92
2016-12-17T09:29:13.038Z,49.57
2016-12-17T09:30:13.280Z,51.02
2016-12-17T09:31:13.328Z,50.74
2016-12-17T09:32:14.764Z,50.86
2016-12-17T09:33:13.950Z,50.91
2016-12-17T09:34:15.628Z,51.28
2016-12-17T09:35:13.242Z,51.06
2016-12-17T09:36:12.176Z,51.04
2016-12-17T09:37:13.396Z,50.92
2016-12-17T09:38:15.003Z,50.87
2016-12-17T09:39:12.954Z,50.69
2016-12-17T09:40:11.385Z,50.69
2016-12-17T09:41:13.773Z,50.07
2016-12-17T09:42:13.496Z,50.59
2016-12-17T09:43:13.177Z,50.59
2016-12-17T09:44:13.573Z,50.63
2016-12-17T09:45:15.924Z,50.78
2016-12-17T09:46:13.781Z,50.86
2016-12-17T09:47:13.405Z,50.81
2016-12-17T09:48:13.616Z,50.91
2016-12-17T09:49:13.826Z,51.15
2016-12-17T09:50:14.900Z,51.20
2016-12-17T09:51:13.402Z,51.28
2016-12-17T09:52:13.398Z,51.38
2016-12-17T09:53:13.338Z,51.46
2016-12-17T09:54:13.777Z,51.61
2016-12-17T09:55:13.491Z,51.66
2016-12-17T09:56:20.491Z,51.74
2016-12-17T09:57:12.449Z,51.79
2016-12-17T09:58:13.020Z,51.98
2016-12-17T09:59:13.797Z,52.09
2016-12-17T10:00:13.172Z,52.03
2016-12-17T10:01:12.417Z,52.00
2016-12-17T10:02:13.432Z,51.50
2016-12-17T10:03:14.151Z,51.43
2016-12-17T10:04:14.113Z,51.35
2016-12-17T10:05:14.351Z,51.37
2016-12-17T10:06:19.641Z,51.45
2016-12-17T10:07:13.572Z,51.52
2016-12-17T10:08:10.837Z,51.57
2016-12-17T10:09:13.548Z,51.67
2016-12-17T10:10:14.299Z,51.67
2016-12-17T10:11:13.390Z,52.02
2016-12-17T10:12:13.128Z,52.64
2016-12-17T10:13:14.888Z,52.17
2016-12-17T10:14:14.842Z,52.93
2016-12-17T10:15:13.467Z,53.15
2016-12-17T10:16:11.828Z,53.22
2016-12-17T10:17:14.007Z,52.47
2016-12-17T10:18:13.800Z,52.35
2016-12-17T10:19:14.686Z,52.36
2016-12-17T10:20:12.309Z,52.56
2016-12-17T10:21:14.044Z,53.34
2016-12-17T10:22:13.207Z,53.51
2016-12-17T10:23:15.477Z,53.65
2016-12-17T10:24:13.616Z,53.80
2016-12-17T10:25:15.423Z,53.87
2016-12-17T10:26:13.402Z,53.97
2016-12-17T10:27:13.688Z,54.06
2016-12-17T10:28:13.252Z,54.07
2016-12-17T10:29:10.435Z,54.20
2016-12-17T10:30:12.177Z,54.21
2016-12-17T10:31:12.536Z,54.30
2016-12-17T10:32:13.406Z,54.31
2016-12-17T10:33:13.342Z,54.39
2016-12-17T10:34:13.867Z,54.47
2016-12-17T10:35:14.280Z,54.50
2016-12-17T10:36:13.164Z,54.54
2016-12-17T10:37:13.815Z,54.44
2016-12-17T10:38:13.542Z,53.84
2016-12-17T10:39:17.381Z,54.50
2016-12-17T10:40:13.170Z,54.56
2016-12-17T10:41:13.792Z,54.69
2016-12-17T10:42:15.547Z,54.80
2016-12-17T10:43:14.426Z,54.83
2016-12-17T10:44:14.326Z,54.87
2016-12-17T10:45:13.913Z,54.88
2016-12-17T10:46:13.800Z,54.86
2016-12-17T10:47:14.373Z,54.80
2016-12-17T10:48:13.423Z,54.06
2016-12-17T10:49:14.210Z,53.97
2016-12-17T10:50:13.117Z,54.22
2016-12-17T10:51:13.287Z,54.77
2016-12-17T10:52:14.321Z,54.96
2016-12-17T10:53:12.296Z,55.10
2016-12-17T10:54:13.874Z,55.18
2016-12-17T10:55:14.178Z,55.22
2016-12-17T10:56:13.859Z,55.23
2016-12-17T10:57:13.826Z,55.29
2016-12-17T10:58:13.676Z,55.31
2016-12-17T10:59:12.819Z,55.37
2016-12-17T11:00:11.567Z,55.37
2016-12-17T11:01:11.599Z,55.39
2016-12-17T11:02:12.719Z,55.44
2016-12-17T11:03:15.606Z,55.47
2016-12-17T11:04:13.458Z,55.46
2016-12-17T11:05:13.564Z,55.52
2016-12-17T11:06:13.195Z,55.54
2016-12-17T11:07:13.389Z,55.63
2016-12-17T11:08:13.688Z,55.64
2016-12-17T11:09:14.176Z,55.64
2016-12-17T11:10:15.183Z,55.68
2016-12-17T11:11:11.991Z,55.71
2016-12-17T11:12:14.574Z,55.73
2016-12-17T11:13:14.962Z,55.79
2016-12-17T11:14:13.499Z,55.79
2016-12-17T11:15:14.387Z,55.80
2016-12-17T11:16:13.910Z,55.88
2016-12-17T11:17:14.841Z,55.89
2016-12-17T11:18:14.233Z,55.88
2016-12-17T11:19:13.831Z,55.90
2016-12-17T11:20:14.321Z,55.90
2016-12-17T11:21:15.066Z,55.95
2016-12-17T11:22:14.114Z,55.98
2016-12-17T11:23:14.986Z,56.00
2016-12-17T11:24:11.848Z,55.96
2016-12-17T11:25:13.659Z,56.02
2016-12-17T11:26:18.209Z,56.07
2016-12-17T11:27:13.157Z,56.06
2016-12-17T11:28:13.267Z,56.08
2016-12-17T11:29:15.087Z,56.10
2016-12-17T11:30:15.022Z,56.15
2016-12-17T11:31:13.739Z,56.16
2016-12-17T11:32:13.729Z,56.14
2016-12-17T11:33:14.215Z,56.14
2016-12-17T11:34:13.346Z,56.07
2016-12-17T11:35:10.817Z,55.26
2016-12-17T11:36:13.239Z,55.24
2016-12-17T11:37:10.467Z,55.96
2016-12-17T11:38:14.069Z,56.14
2016-12-17T11:39:11.456Z,56.20
2016-12-17T11:40:13.869Z,56.24
2016-12-17T11:41:14.234Z,56.13
2016-12-17T11:42:14.080Z,55.69
2016-12-17T11:43:14.099Z,56.13
2016-12-17T11:44:14.857Z,56.25
2016-12-17T11:45:14.263Z,56.29
2016-12-17T11:46:12.737Z,56.46
2016-12-17T11:47:12.310Z,55.63
2016-12-17T11:48:13.777Z,56.21
2016-12-17T11:49:13.866Z,56.35
2016-12-17T11:50:14.491Z,56.38
2016-12-17T11:51:14.035Z,56.43
2016-12-17T11:52:11.721Z,56.48
2016-12-17T11:53:13.527Z,56.49
2016-12-17T11:54:15.423Z,56.50
2016-12-17T11:55:13.690Z,56.52
2016-12-17T11:56:11.233Z,56.59
2016-12-17T11:57:15.044Z,56.53
2016-12-17T11:58:13.650Z,56.56
2016-12-17T11:59:11.958Z,56.61
2016-12-17T12:00:13.957Z,56.59
2016-12-17T12:01:13.197Z,56.63
2016-12-17T12:02:16.232Z,56.66
2016-12-17T12:03:11.270Z,56.67
2016-12-17T12:04:13.350Z,56.69
2016-12-17T12:05:13.644Z,56.71
2016-12-17T12:06:14.393Z,56.69
2016-12-17T12:07:13.917Z,56.71
2016-12-17T12:08:14.455Z,56.71
2016-12-17T12:09:14.455Z,56.75
2016-12-17T12:10:13.695Z,56.76
2016-12-17T12:11:13.489Z,56.75
2016-12-17T12:12:13.870Z,56.79
2016-12-17T12:13:14.333Z,56.78
2016-12-17T12:14:13.809Z,56.80
2016-12-17T12:15:14.453Z,56.69
2016-12-17T12:16:12.326Z,55.91
2016-12-17T12:17:13.628Z,55.74
2016-12-17T12:18:19.521Z,55.64
2016-12-17T12:19:14.408Z,55.62
2016-12-17T12:20:14.298Z,56.45
2016-12-17T12:21:12.544Z,56.62
2016-12-17T12:22:13.662Z,56.16
2016-12-17T12:23:15.362Z,56.66
2016-12-17T12:24:13.591Z,56.77
2016-12-17T12:25:12.801Z,56.73
2016-12-17T12:26:13.740Z,56.85
2016-12-17T12:27:13.388Z,56.89
2016-12-17T12:28:13.366Z,56.93
2016-12-17T12:29:13.619Z,56.91
2016-12-17T12:30:13.883Z,56.93
2016-12-17T12:31:14.377Z,56.94
2016-12-17T12:32:13.594Z,56.82
2016-12-17T12:33:13.487Z,56.27
2016-12-17T12:34:12.515Z,56.78
2016-12-17T12:35:13.676Z,56.13
2016-12-17T12:36:14.070Z,56.04
2016-12-17T12:37:13.006Z,56.70
2016-12-17T12:38:16.092Z,56.88
2016-12-17T12:39:13.656Z,56.94
2016-12-17T12:40:15.858Z,56.99
2016-12-17T12:41:13.584Z,56.99
2016-12-17T12:42:14.397Z,57.04
2016-12-17T12:43:12.006Z,57.09
2016-12-17T12:44:13.979Z,57.06
2016-12-17T12:45:16.483Z,57.13
2016-12-17T12:46:13.833Z,57.11
2016-12-17T12:47:14.095Z,57.10
2016-12-17T12:48:09.521Z,57.15
2016-12-17T12:49:13.573Z,57.14
2016-12-17T12:50:13.494Z,57.13
2016-12-17T12:51:13.013Z,57.17
2016-12-17T12:52:12.922Z,57.16